sensor_id;sensor_type;location;lat;lon;timestamp;P1;durP1;ratioP1;P2;durP2;ratioP2
33738;SDS011;20063;51.730;11.110;2022-12-07T00:01:11;25.30;;;13.70;;
33738;SDS011;20063;51.730;11.110;2022-12-07T00:03:45;20.52;;;12.98;;
33738;SDS011;20063;51.730;11.110;2022-12-07T00:06:16;16.63;;;12.25;;
33738;SDS011;20063;51.730;11.110;2022-12-07T00:08:43;19.70;;;12.32;;
33738;SDS011;20063;51.730;11.110;2022-12-07T00:11:10;18.55;;;11.38;;
33738;SDS011;20063;51.730;11.110;2022-12-07T00:13:38;23.80;;;12.18;;
33738;SDS011;20063;51.730;11.110;2022-12-07T00:16:05;25.42;;;12.55;;
33738;SDS011;20063;51.730;11.110;2022-12-07T00:18:39;21.83;;;14.05;;
33738;SDS011;20063;51.730;11.110;2022-12-07T00:21:06;23.25;;;13.25;;
33738;SDS011;20063;51.730;11.110;2022-12-07T00:23:37;21.15;;;12.80;;
33738;SDS011;20063;51.730;11.110;2022-12-07T00:26:04;24.35;;;14.13;;
33738;SDS011;20063;51.730;11.110;2022-12-07T00:28:31;16.15;;;11.13;;
33738;SDS011;20063;51.730;11.110;2022-12-07T00:31:05;21.20;;;13.55;;
33738;SDS011;20063;51.730;11.110;2022-12-07T00:33:37;19.27;;;12.77;;
33738;SDS011;20063;51.730;11.110;2022-12-07T00:36:07;23.17;;;13.00;;
33738;SDS011;20063;51.730;11.110;2022-12-07T00:38:37;20.48;;;12.98;;
33738;SDS011;20063;51.730;11.110;2022-12-07T00:41:05;21.08;;;11.52;;
33738;SDS011;20063;51.730;11.110;2022-12-07T00:43:34;22.63;;;12.95;;
33738;SDS011;20063;51.730;11.110;2022-12-07T00:46:00;19.98;;;12.45;;
33738;SDS011;20063;51.730;11.110;2022-12-07T00:48:25;19.17;;;11.23;;
33738;SDS011;20063;51.730;11.110;2022-12-07T00:50:51;17.67;;;11.77;;
33738;SDS011;20063;51.730;11.110;2022-12-07T00:53:17;17.10;;;10.85;;
33738;SDS011;20063;51.730;11.110;2022-12-07T00:55:43;17.45;;;11.38;;
33738;SDS011;20063;51.730;11.110;2022-12-07T00:58:09;19.63;;;12.90;;
33738;SDS011;20063;51.730;11.110;2022-12-07T01:00:36;20.70;;;12.38;;
33738;SDS011;20063;51.730;11.110;2022-12-07T01:03:03;18.92;;;11.82;;
33738;SDS011;20063;51.730;11.110;2022-12-07T01:05:29;23.40;;;13.18;;
33738;SDS011;20063;51.730;11.110;2022-12-07T01:07:55;22.70;;;13.73;;
33738;SDS011;20063;51.730;11.110;2022-12-07T01:10:20;33.10;;;15.98;;
33738;SDS011;20063;51.730;11.110;2022-12-07T01:12:46;22.40;;;14.68;;
33738;SDS011;20063;51.730;11.110;2022-12-07T01:15:12;23.75;;;14.05;;
33738;SDS011;20063;51.730;11.110;2022-12-07T01:17:38;22.17;;;13.15;;
33738;SDS011;20063;51.730;11.110;2022-12-07T01:20:04;23.15;;;14.15;;
33738;SDS011;20063;51.730;11.110;2022-12-07T01:22:30;23.17;;;14.25;;
33738;SDS011;20063;51.730;11.110;2022-12-07T01:24:55;25.25;;;14.68;;
33738;SDS011;20063;51.730;11.110;2022-12-07T01:27:21;23.70;;;14.38;;
33738;SDS011;20063;51.730;11.110;2022-12-07T01:29:47;24.20;;;14.70;;
33738;SDS011;20063;51.730;11.110;2022-12-07T01:32:12;22.63;;;14.85;;
33738;SDS011;20063;51.730;11.110;2022-12-07T01:34:38;24.77;;;15.15;;
33738;SDS011;20063;51.730;11.110;2022-12-07T01:37:03;28.25;;;15.55;;
33738;SDS011;20063;51.730;11.110;2022-12-07T01:39:29;25.77;;;16.50;;
33738;SDS011;20063;51.730;11.110;2022-12-07T01:41:55;27.83;;;16.65;;
33738;SDS011;20063;51.730;11.110;2022-12-07T01:44:24;26.58;;;16.60;;
33738;SDS011;20063;51.730;11.110;2022-12-07T01:46:52;32.92;;;18.13;;
33738;SDS011;20063;51.730;11.110;2022-12-07T01:49:43;29.67;;;16.98;;
33738;SDS011;20063;51.730;11.110;2022-12-07T01:54:37;28.40;;;16.20;;
33738;SDS011;20063;51.730;11.110;2022-12-07T01:57:03;29.73;;;18.27;;
33738;SDS011;20063;51.730;11.110;2022-12-07T01:59:31;26.52;;;16.88;;
33738;SDS011;20063;51.730;11.110;2022-12-07T02:01:58;32.28;;;16.23;;
33738;SDS011;20063;51.730;11.110;2022-12-07T02:04:26;29.60;;;17.15;;
33738;SDS011;20063;51.730;11.110;2022-12-07T02:06:52;24.77;;;14.70;;
33738;SDS011;20063;51.730;11.110;2022-12-07T02:09:20;22.90;;;13.50;;
33738;SDS011;20063;51.730;11.110;2022-12-07T02:11:45;19.25;;;12.23;;
33738;SDS011;20063;51.730;11.110;2022-12-07T02:14:11;22.65;;;12.70;;
33738;SDS011;20063;51.730;11.110;2022-12-07T02:16:43;16.90;;;11.05;;
33738;SDS011;20063;51.730;11.110;2022-12-07T02:30:47;15.07;;;9.05;;
33738;SDS011;20063;51.730;11.110;2022-12-07T02:41:43;10.90;;;7.75;;
33738;SDS011;20063;51.730;11.110;2022-12-07T02:44:13;12.45;;;8.57;;
33738;SDS011;20063;51.730;11.110;2022-12-07T02:46:43;12.02;;;7.65;;
33738;SDS011;20063;51.730;11.110;2022-12-07T02:49:14;9.98;;;7.57;;
33738;SDS011;20063;51.730;11.110;2022-12-07T02:51:45;11.45;;;7.57;;
33738;SDS011;20063;51.730;11.110;2022-12-07T02:54:12;8.30;;;6.10;;
33738;SDS011;20063;51.730;11.110;2022-12-07T03:10:28;6.22;;;4.68;;
33738;SDS011;20063;51.730;11.110;2022-12-07T03:13:27;4.80;;;4.07;;
33738;SDS011;20063;51.730;11.110;2022-12-07T03:16:20;4.82;;;3.80;;
33738;SDS011;20063;51.730;11.110;2022-12-07T03:19:15;8.45;;;4.22;;
33738;SDS011;20063;51.730;11.110;2022-12-07T03:21:44;5.53;;;4.20;;
33738;SDS011;20063;51.730;11.110;2022-12-07T03:24:18;4.05;;;3.60;;
33738;SDS011;20063;51.730;11.110;2022-12-07T03:26:55;6.38;;;4.15;;
33738;SDS011;20063;51.730;11.110;2022-12-07T03:29:54;4.38;;;3.40;;
33738;SDS011;20063;51.730;11.110;2022-12-07T03:32:27;4.25;;;3.53;;
33738;SDS011;20063;51.730;11.110;2022-12-07T03:37:39;3.90;;;3.30;;
33738;SDS011;20063;51.730;11.110;2022-12-07T03:42:57;4.22;;;3.00;;
33738;SDS011;20063;51.730;11.110;2022-12-07T03:45:30;2.97;;;2.67;;
33738;SDS011;20063;51.730;11.110;2022-12-07T03:48:20;3.25;;;2.80;;
33738;SDS011;20063;51.730;11.110;2022-12-07T03:50:58;3.47;;;3.13;;
33738;SDS011;20063;51.730;11.110;2022-12-07T03:53:54;2.70;;;2.50;;
33738;SDS011;20063;51.730;11.110;2022-12-07T03:56:42;3.10;;;2.65;;
33738;SDS011;20063;51.730;11.110;2022-12-07T03:59:10;3.33;;;3.08;;
33738;SDS011;20063;51.730;11.110;2022-12-07T04:01:37;3.92;;;3.15;;
33738;SDS011;20063;51.730;11.110;2022-12-07T04:04:03;4.18;;;2.70;;
33738;SDS011;20063;51.730;11.110;2022-12-07T04:06:29;2.75;;;2.40;;
33738;SDS011;20063;51.730;11.110;2022-12-07T04:08:54;3.00;;;2.10;;
33738;SDS011;20063;51.730;11.110;2022-12-07T04:11:20;2.92;;;2.40;;
33738;SDS011;20063;51.730;11.110;2022-12-07T04:13:46;2.45;;;2.22;;
33738;SDS011;20063;51.730;11.110;2022-12-07T04:16:30;2.42;;;2.22;;
33738;SDS011;20063;51.730;11.110;2022-12-07T04:18:57;2.50;;;2.30;;
33738;SDS011;20063;51.730;11.110;2022-12-07T04:21:23;2.60;;;2.08;;
33738;SDS011;20063;51.730;11.110;2022-12-07T04:23:48;2.75;;;2.47;;
33738;SDS011;20063;51.730;11.110;2022-12-07T04:26:14;2.20;;;2.00;;
33738;SDS011;20063;51.730;11.110;2022-12-07T04:28:40;2.50;;;2.30;;
33738;SDS011;20063;51.730;11.110;2022-12-07T04:31:05;2.53;;;2.33;;
33738;SDS011;20063;51.730;11.110;2022-12-07T04:33:31;3.30;;;2.40;;
33738;SDS011;20063;51.730;11.110;2022-12-07T04:35:56;4.50;;;3.00;;
33738;SDS011;20063;51.730;11.110;2022-12-07T04:38:22;4.38;;;2.72;;
33738;SDS011;20063;51.730;11.110;2022-12-07T04:40:48;6.22;;;3.45;;
33738;SDS011;20063;51.730;11.110;2022-12-07T04:43:13;6.15;;;3.70;;
33738;SDS011;20063;51.730;11.110;2022-12-07T04:45:39;4.78;;;3.38;;
33738;SDS011;20063;51.730;11.110;2022-12-07T04:48:05;5.15;;;3.72;;
33738;SDS011;20063;51.730;11.110;2022-12-07T04:50:30;6.18;;;3.30;;
33738;SDS011;20063;51.730;11.110;2022-12-07T04:52:56;4.43;;;3.45;;
33738;SDS011;20063;51.730;11.110;2022-12-07T04:55:21;13.52;;;4.18;;
33738;SDS011;20063;51.730;11.110;2022-12-07T04:57:47;6.97;;;3.05;;
33738;SDS011;20063;51.730;11.110;2022-12-07T05:00:13;12.00;;;4.13;;
33738;SDS011;20063;51.730;11.110;2022-12-07T05:02:38;10.13;;;4.40;;
33738;SDS011;20063;51.730;11.110;2022-12-07T05:05:04;5.22;;;3.85;;
33738;SDS011;20063;51.730;11.110;2022-12-07T05:07:30;8.10;;;3.58;;
33738;SDS011;20063;51.730;11.110;2022-12-07T05:09:56;9.52;;;4.10;;
33738;SDS011;20063;51.730;11.110;2022-12-07T05:12:21;14.13;;;4.18;;
33738;SDS011;20063;51.730;11.110;2022-12-07T05:14:47;17.42;;;6.25;;
33738;SDS011;20063;51.730;11.110;2022-12-07T05:17:12;7.63;;;4.57;;
33738;SDS011;20063;51.730;11.110;2022-12-07T05:19:38;13.20;;;3.85;;
33738;SDS011;20063;51.730;11.110;2022-12-07T05:22:04;10.70;;;3.75;;
33738;SDS011;20063;51.730;11.110;2022-12-07T05:24:29;8.10;;;4.05;;
33738;SDS011;20063;51.730;11.110;2022-12-07T05:26:55;11.90;;;4.75;;
33738;SDS011;20063;51.730;11.110;2022-12-07T05:29:21;15.45;;;4.40;;
33738;SDS011;20063;51.730;11.110;2022-12-07T05:31:46;8.50;;;3.60;;
33738;SDS011;20063;51.730;11.110;2022-12-07T05:34:12;18.65;;;4.60;;
33738;SDS011;20063;51.730;11.110;2022-12-07T05:36:38;15.32;;;3.70;;
33738;SDS011;20063;51.730;11.110;2022-12-07T05:39:03;10.45;;;2.83;;
33738;SDS011;20063;51.730;11.110;2022-12-07T05:41:29;11.38;;;3.30;;
33738;SDS011;20063;51.730;11.110;2022-12-07T05:44:13;8.52;;;3.28;;
33738;SDS011;20063;51.730;11.110;2022-12-07T05:46:39;9.07;;;2.90;;
33738;SDS011;20063;51.730;11.110;2022-12-07T05:49:05;10.07;;;3.15;;
33738;SDS011;20063;51.730;11.110;2022-12-07T05:51:31;14.50;;;2.70;;
33738;SDS011;20063;51.730;11.110;2022-12-07T05:53:57;12.60;;;3.45;;
33738;SDS011;20063;51.730;11.110;2022-12-07T05:56:22;20.17;;;3.20;;
33738;SDS011;20063;51.730;11.110;2022-12-07T05:58:48;15.18;;;3.30;;
33738;SDS011;20063;51.730;11.110;2022-12-07T06:01:32;10.38;;;2.55;;
33738;SDS011;20063;51.730;11.110;2022-12-07T06:03:58;10.82;;;2.80;;
33738;SDS011;20063;51.730;11.110;2022-12-07T06:06:23;8.02;;;2.58;;
33738;SDS011;20063;51.730;11.110;2022-12-07T06:08:49;11.15;;;2.72;;
33738;SDS011;20063;51.730;11.110;2022-12-07T06:11:15;11.32;;;3.08;;
33738;SDS011;20063;51.730;11.110;2022-12-07T06:13:59;7.10;;;3.28;;
33738;SDS011;20063;51.730;11.110;2022-12-07T06:16:24;7.30;;;2.80;;
33738;SDS011;20063;51.730;11.110;2022-12-07T06:18:50;5.70;;;3.25;;
33738;SDS011;20063;51.730;11.110;2022-12-07T06:21:16;11.40;;;2.47;;
33738;SDS011;20063;51.730;11.110;2022-12-07T06:23:41;6.70;;;2.50;;
33738;SDS011;20063;51.730;11.110;2022-12-07T06:26:07;25.23;;;3.15;;
33738;SDS011;20063;51.730;11.110;2022-12-07T06:28:33;7.30;;;2.40;;
33738;SDS011;20063;51.730;11.110;2022-12-07T06:30:59;7.68;;;2.92;;
33738;SDS011;20063;51.730;11.110;2022-12-07T06:33:25;10.63;;;3.08;;
33738;SDS011;20063;51.730;11.110;2022-12-07T06:35:51;5.95;;;2.30;;
33738;SDS011;20063;51.730;11.110;2022-12-07T06:38:17;7.88;;;2.65;;
33738;SDS011;20063;51.730;11.110;2022-12-07T06:40:43;16.92;;;3.42;;
33738;SDS011;20063;51.730;11.110;2022-12-07T06:43:08;8.93;;;2.75;;
33738;SDS011;20063;51.730;11.110;2022-12-07T06:45:34;8.27;;;2.78;;
33738;SDS011;20063;51.730;11.110;2022-12-07T06:48:00;18.92;;;3.08;;
33738;SDS011;20063;51.730;11.110;2022-12-07T06:50:26;8.43;;;2.63;;
33738;SDS011;20063;51.730;11.110;2022-12-07T06:52:51;15.80;;;3.35;;
33738;SDS011;20063;51.730;11.110;2022-12-07T06:55:17;12.77;;;3.08;;
33738;SDS011;20063;51.730;11.110;2022-12-07T06:57:43;7.15;;;2.75;;
33738;SDS011;20063;51.730;11.110;2022-12-07T07:00:09;10.10;;;2.75;;
33738;SDS011;20063;51.730;11.110;2022-12-07T07:02:35;9.23;;;2.60;;
33738;SDS011;20063;51.730;11.110;2022-12-07T07:05:01;6.07;;;2.67;;
33738;SDS011;20063;51.730;11.110;2022-12-07T07:07:26;6.13;;;2.83;;
33738;SDS011;20063;51.730;11.110;2022-12-07T07:09:52;4.60;;;2.60;;
33738;SDS011;20063;51.730;11.110;2022-12-07T07:12:18;8.75;;;2.58;;
33738;SDS011;20063;51.730;11.110;2022-12-07T07:14:43;4.85;;;2.15;;
33738;SDS011;20063;51.730;11.110;2022-12-07T07:17:09;7.13;;;2.53;;
33738;SDS011;20063;51.730;11.110;2022-12-07T07:19:34;4.85;;;2.55;;
33738;SDS011;20063;51.730;11.110;2022-12-07T07:22:02;9.93;;;3.00;;
33738;SDS011;20063;51.730;11.110;2022-12-07T07:24:28;10.20;;;2.85;;
33738;SDS011;20063;51.730;11.110;2022-12-07T07:26:54;8.85;;;2.80;;
33738;SDS011;20063;51.730;11.110;2022-12-07T07:29:20;4.20;;;3.28;;
33738;SDS011;20063;51.730;11.110;2022-12-07T07:31:45;8.88;;;2.97;;
33738;SDS011;20063;51.730;11.110;2022-12-07T07:34:11;6.13;;;2.60;;
33738;SDS011;20063;51.730;11.110;2022-12-07T07:36:37;19.08;;;7.15;;
33738;SDS011;20063;51.730;11.110;2022-12-07T07:39:02;15.60;;;4.63;;
33738;SDS011;20063;51.730;11.110;2022-12-07T07:41:28;56.97;;;23.17;;
33738;SDS011;20063;51.730;11.110;2022-12-07T07:43:54;20.08;;;10.00;;
33738;SDS011;20063;51.730;11.110;2022-12-07T07:46:19;17.17;;;6.38;;
33738;SDS011;20063;51.730;11.110;2022-12-07T07:48:45;16.40;;;8.32;;
33738;SDS011;20063;51.730;11.110;2022-12-07T07:51:11;37.42;;;19.95;;
33738;SDS011;20063;51.730;11.110;2022-12-07T07:53:36;18.73;;;8.25;;
33738;SDS011;20063;51.730;11.110;2022-12-07T07:56:02;19.77;;;9.55;;
33738;SDS011;20063;51.730;11.110;2022-12-07T07:58:28;27.23;;;11.80;;
33738;SDS011;20063;51.730;11.110;2022-12-07T08:00:53;44.50;;;17.95;;
33738;SDS011;20063;51.730;11.110;2022-12-07T08:03:19;16.83;;;9.40;;
33738;SDS011;20063;51.730;11.110;2022-12-07T08:05:45;24.17;;;12.10;;
33738;SDS011;20063;51.730;11.110;2022-12-07T08:08:11;14.77;;;6.07;;
33738;SDS011;20063;51.730;11.110;2022-12-07T08:10:36;7.78;;;4.63;;
33738;SDS011;20063;51.730;11.110;2022-12-07T08:13:02;9.73;;;4.57;;
33738;SDS011;20063;51.730;11.110;2022-12-07T08:15:42;13.77;;;4.90;;
33738;SDS011;20063;51.730;11.110;2022-12-07T08:18:11;10.30;;;4.30;;
33738;SDS011;20063;51.730;11.110;2022-12-07T08:20:39;20.55;;;9.52;;
33738;SDS011;20063;51.730;11.110;2022-12-07T08:23:05;23.65;;;9.00;;
33738;SDS011;20063;51.730;11.110;2022-12-07T08:25:32;14.68;;;8.57;;
33738;SDS011;20063;51.730;11.110;2022-12-07T08:27:58;18.13;;;8.95;;
33738;SDS011;20063;51.730;11.110;2022-12-07T08:30:25;15.10;;;7.32;;
33738;SDS011;20063;51.730;11.110;2022-12-07T08:32:53;15.18;;;8.10;;
33738;SDS011;20063;51.730;11.110;2022-12-07T08:35:19;10.98;;;5.85;;
33738;SDS011;20063;51.730;11.110;2022-12-07T08:37:44;29.85;;;11.52;;
33738;SDS011;20063;51.730;11.110;2022-12-07T08:40:11;12.82;;;4.65;;
33738;SDS011;20063;51.730;11.110;2022-12-07T08:42:40;10.75;;;4.57;;
33738;SDS011;20063;51.730;11.110;2022-12-07T08:45:11;10.15;;;4.28;;
33738;SDS011;20063;51.730;11.110;2022-12-07T08:47:52;13.27;;;4.22;;
33738;SDS011;20063;51.730;11.110;2022-12-07T08:50:21;6.55;;;3.72;;
33738;SDS011;20063;51.730;11.110;2022-12-07T08:52:51;10.68;;;4.57;;
33738;SDS011;20063;51.730;11.110;2022-12-07T08:55:20;11.55;;;3.67;;
33738;SDS011;20063;51.730;11.110;2022-12-07T08:57:46;8.95;;;3.33;;
33738;SDS011;20063;51.730;11.110;2022-12-07T09:00:12;11.27;;;4.18;;
33738;SDS011;20063;51.730;11.110;2022-12-07T09:02:38;9.82;;;3.58;;
33738;SDS011;20063;51.730;11.110;2022-12-07T09:05:04;9.82;;;3.55;;
33738;SDS011;20063;51.730;11.110;2022-12-07T09:07:30;10.10;;;4.10;;
33738;SDS011;20063;51.730;11.110;2022-12-07T09:09:58;10.77;;;3.42;;
33738;SDS011;20063;51.730;11.110;2022-12-07T09:12:24;7.63;;;3.33;;
33738;SDS011;20063;51.730;11.110;2022-12-07T09:14:50;5.60;;;2.80;;
33738;SDS011;20063;51.730;11.110;2022-12-07T09:17:15;7.55;;;3.22;;
33738;SDS011;20063;51.730;11.110;2022-12-07T09:19:41;10.00;;;3.40;;
33738;SDS011;20063;51.730;11.110;2022-12-07T09:22:08;6.70;;;2.72;;
33738;SDS011;20063;51.730;11.110;2022-12-07T09:24:34;14.25;;;2.80;;
33738;SDS011;20063;51.730;11.110;2022-12-07T09:26:59;9.40;;;4.55;;
33738;SDS011;20063;51.730;11.110;2022-12-07T09:29:25;8.60;;;2.58;;
33738;SDS011;20063;51.730;11.110;2022-12-07T09:31:51;8.05;;;4.97;;
33738;SDS011;20063;51.730;11.110;2022-12-07T09:34:17;7.68;;;5.43;;
33738;SDS011;20063;51.730;11.110;2022-12-07T09:36:43;9.07;;;2.88;;
33738;SDS011;20063;51.730;11.110;2022-12-07T09:39:09;5.30;;;3.53;;
33738;SDS011;20063;51.730;11.110;2022-12-07T09:41:37;10.48;;;2.17;;
33738;SDS011;20063;51.730;11.110;2022-12-07T09:44:14;4.13;;;2.10;;
33738;SDS011;20063;51.730;11.110;2022-12-07T09:46:48;5.78;;;2.03;;
33738;SDS011;20063;51.730;11.110;2022-12-07T09:49:18;4.25;;;2.05;;
33738;SDS011;20063;51.730;11.110;2022-12-07T09:51:45;4.07;;;1.85;;
33738;SDS011;20063;51.730;11.110;2022-12-07T09:54:13;3.42;;;1.63;;
33738;SDS011;20063;51.730;11.110;2022-12-07T09:56:40;6.40;;;1.80;;
33738;SDS011;20063;51.730;11.110;2022-12-07T09:59:09;3.72;;;1.63;;
33738;SDS011;20063;51.730;11.110;2022-12-07T10:01:39;6.18;;;2.10;;
33738;SDS011;20063;51.730;11.110;2022-12-07T10:04:15;5.07;;;1.70;;
33738;SDS011;20063;51.730;11.110;2022-12-07T10:06:44;7.93;;;1.80;;
33738;SDS011;20063;51.730;11.110;2022-12-07T10:09:15;2.13;;;1.83;;
33738;SDS011;20063;51.730;11.110;2022-12-07T10:11:58;2.75;;;1.55;;
33738;SDS011;20063;51.730;11.110;2022-12-07T10:14:24;11.57;;;1.92;;
33738;SDS011;20063;51.730;11.110;2022-12-07T10:16:53;11.93;;;2.35;;
33738;SDS011;20063;51.730;11.110;2022-12-07T10:19:20;2.28;;;1.50;;
33738;SDS011;20063;51.730;11.110;2022-12-07T10:22:11;4.05;;;1.98;;
33738;SDS011;20063;51.730;11.110;2022-12-07T10:24:38;2.75;;;1.60;;
33738;SDS011;20063;51.730;11.110;2022-12-07T10:27:26;3.53;;;1.60;;
33738;SDS011;20063;51.730;11.110;2022-12-07T10:29:56;4.97;;;1.55;;
33738;SDS011;20063;51.730;11.110;2022-12-07T10:32:34;4.20;;;2.00;;
33738;SDS011;20063;51.730;11.110;2022-12-07T10:37:55;5.40;;;1.80;;
33738;SDS011;20063;51.730;11.110;2022-12-07T10:43:17;10.35;;;3.53;;
33738;SDS011;20063;51.730;11.110;2022-12-07T10:48:24;9.70;;;1.60;;
33738;SDS011;20063;51.730;11.110;2022-12-07T11:02:07;6.85;;;1.52;;
33738;SDS011;20063;51.730;11.110;2022-12-07T11:15:17;5.93;;;1.90;;
33738;SDS011;20063;51.730;11.110;2022-12-07T11:17:49;2.78;;;1.60;;
33738;SDS011;20063;51.730;11.110;2022-12-07T11:20:45;1.90;;;1.30;;
33738;SDS011;20063;51.730;11.110;2022-12-07T11:39:00;5.88;;;2.10;;
33738;SDS011;20063;51.730;11.110;2022-12-07T11:41:34;5.70;;;3.83;;
33738;SDS011;20063;51.730;11.110;2022-12-07T11:46:52;6.53;;;3.10;;
33738;SDS011;20063;51.730;11.110;2022-12-07T11:49:26;5.43;;;2.50;;
33738;SDS011;20063;51.730;11.110;2022-12-07T11:51:57;12.00;;;6.38;;
33738;SDS011;20063;51.730;11.110;2022-12-07T11:54:32;5.85;;;3.03;;
33738;SDS011;20063;51.730;11.110;2022-12-07T11:57:09;13.88;;;7.32;;
33738;SDS011;20063;51.730;11.110;2022-12-07T11:59:51;8.38;;;3.60;;
33738;SDS011;20063;51.730;11.110;2022-12-07T12:02:23;3.72;;;2.13;;
33738;SDS011;20063;51.730;11.110;2022-12-07T12:05:18;7.82;;;3.65;;
33738;SDS011;20063;51.730;11.110;2022-12-07T12:07:46;11.25;;;5.25;;
33738;SDS011;20063;51.730;11.110;2022-12-07T12:15:57;16.88;;;8.57;;
33738;SDS011;20063;51.730;11.110;2022-12-07T12:21:19;25.45;;;12.63;;
33738;SDS011;20063;51.730;11.110;2022-12-07T12:23:58;11.80;;;4.97;;
33738;SDS011;20063;51.730;11.110;2022-12-07T12:26:25;8.40;;;3.08;;
33738;SDS011;20063;51.730;11.110;2022-12-07T12:28:58;8.25;;;2.53;;
33738;SDS011;20063;51.730;11.110;2022-12-07T12:34:02;3.55;;;1.90;;
33738;SDS011;20063;51.730;11.110;2022-12-07T12:44:03;4.05;;;1.65;;
33738;SDS011;20063;51.730;11.110;2022-12-07T12:46:55;2.55;;;1.70;;
33738;SDS011;20063;51.730;11.110;2022-12-07T12:51:51;2.97;;;1.70;;
33738;SDS011;20063;51.730;11.110;2022-12-07T12:55:20;1.98;;;1.45;;
33738;SDS011;20063;51.730;11.110;2022-12-07T12:57:39;2.08;;;1.40;;
33738;SDS011;20063;51.730;11.110;2022-12-07T13:02:51;3.70;;;1.80;;
33738;SDS011;20063;51.730;11.110;2022-12-07T13:05:22;3.30;;;2.50;;
33738;SDS011;20063;51.730;11.110;2022-12-07T13:12:58;3.17;;;1.40;;
33738;SDS011;20063;51.730;11.110;2022-12-07T13:15:49;1.30;;;1.20;;
33738;SDS011;20063;51.730;11.110;2022-12-07T13:20:54;9.10;;;2.85;;
33738;SDS011;20063;51.730;11.110;2022-12-07T13:23:35;1.30;;;1.20;;
33738;SDS011;20063;51.730;11.110;2022-12-07T13:26:15;2.28;;;1.80;;
33738;SDS011;20063;51.730;11.110;2022-12-07T13:36:56;2.67;;;1.45;;
33738;SDS011;20063;51.730;11.110;2022-12-07T13:39:23;3.10;;;1.48;;
33738;SDS011;20063;51.730;11.110;2022-12-07T13:41:54;6.03;;;2.70;;
33738;SDS011;20063;51.730;11.110;2022-12-07T13:44:22;4.97;;;2.03;;
33738;SDS011;20063;51.730;11.110;2022-12-07T13:49:30;14.65;;;1.88;;
33738;SDS011;20063;51.730;11.110;2022-12-07T13:52:16;3.05;;;1.50;;
33738;SDS011;20063;51.730;11.110;2022-12-07T13:54:49;3.95;;;1.83;;
33738;SDS011;20063;51.730;11.110;2022-12-07T13:57:21;6.65;;;1.75;;
33738;SDS011;20063;51.730;11.110;2022-12-07T13:59:49;1.65;;;1.48;;
33738;SDS011;20063;51.730;11.110;2022-12-07T14:02:28;4.82;;;1.55;;
33738;SDS011;20063;51.730;11.110;2022-12-07T14:07:57;2.13;;;1.10;;
33738;SDS011;20063;51.730;11.110;2022-12-07T14:10:29;7.70;;;1.60;;
33738;SDS011;20063;51.730;11.110;2022-12-07T14:12:57;10.40;;;1.65;;
33738;SDS011;20063;51.730;11.110;2022-12-07T14:15:25;7.07;;;1.70;;
33738;SDS011;20063;51.730;11.110;2022-12-07T14:17:54;5.90;;;1.45;;
33738;SDS011;20063;51.730;11.110;2022-12-07T14:20:28;3.63;;;1.48;;
33738;SDS011;20063;51.730;11.110;2022-12-07T14:23:00;1.52;;;1.33;;
33738;SDS011;20063;51.730;11.110;2022-12-07T14:25:43;9.80;;;2.00;;
33738;SDS011;20063;51.730;11.110;2022-12-07T14:28:24;3.53;;;1.20;;
33738;SDS011;20063;51.730;11.110;2022-12-07T14:30:58;9.35;;;1.95;;
33738;SDS011;20063;51.730;11.110;2022-12-07T14:33:24;5.13;;;1.60;;
33738;SDS011;20063;51.730;11.110;2022-12-07T14:35:51;4.85;;;1.80;;
33738;SDS011;20063;51.730;11.110;2022-12-07T14:38:23;7.93;;;1.70;;
33738;SDS011;20063;51.730;11.110;2022-12-07T14:40:50;6.07;;;1.92;;
33738;SDS011;20063;51.730;11.110;2022-12-07T14:43:17;5.32;;;1.73;;
33738;SDS011;20063;51.730;11.110;2022-12-07T14:45:44;3.60;;;1.27;;
33738;SDS011;20063;51.730;11.110;2022-12-07T14:48:11;6.55;;;1.48;;
33738;SDS011;20063;51.730;11.110;2022-12-07T14:50:40;2.83;;;1.40;;
33738;SDS011;20063;51.730;11.110;2022-12-07T14:53:14;5.30;;;1.73;;
33738;SDS011;20063;51.730;11.110;2022-12-07T14:55:41;10.10;;;1.92;;
33738;SDS011;20063;51.730;11.110;2022-12-07T14:58:11;10.20;;;2.17;;
33738;SDS011;20063;51.730;11.110;2022-12-07T15:00:39;6.53;;;2.33;;
33738;SDS011;20063;51.730;11.110;2022-12-07T15:03:05;13.52;;;2.85;;
33738;SDS011;20063;51.730;11.110;2022-12-07T15:05:31;8.02;;;2.40;;
33738;SDS011;20063;51.730;11.110;2022-12-07T15:07:57;16.08;;;2.67;;
33738;SDS011;20063;51.730;11.110;2022-12-07T15:10:25;11.95;;;2.53;;
33738;SDS011;20063;51.730;11.110;2022-12-07T15:12:56;6.30;;;2.60;;
33738;SDS011;20063;51.730;11.110;2022-12-07T15:18:08;13.57;;;3.30;;
33738;SDS011;20063;51.730;11.110;2022-12-07T15:20:33;7.50;;;2.40;;
33738;SDS011;20063;51.730;11.110;2022-12-07T15:22:59;5.00;;;2.05;;
33738;SDS011;20063;51.730;11.110;2022-12-07T15:25:24;4.80;;;2.20;;
33738;SDS011;20063;51.730;11.110;2022-12-07T15:27:50;4.45;;;2.20;;
33738;SDS011;20063;51.730;11.110;2022-12-07T15:30:16;6.53;;;2.58;;
33738;SDS011;20063;51.730;11.110;2022-12-07T15:32:41;4.47;;;2.00;;
33738;SDS011;20063;51.730;11.110;2022-12-07T15:35:09;6.80;;;2.33;;
33738;SDS011;20063;51.730;11.110;2022-12-07T15:37:34;14.75;;;4.75;;
33738;SDS011;20063;51.730;11.110;2022-12-07T15:40:00;9.50;;;2.97;;
33738;SDS011;20063;51.730;11.110;2022-12-07T15:42:26;14.13;;;2.88;;
33738;SDS011;20063;51.730;11.110;2022-12-07T15:44:52;14.07;;;3.47;;
33738;SDS011;20063;51.730;11.110;2022-12-07T15:47:30;11.23;;;3.17;;
33738;SDS011;20063;51.730;11.110;2022-12-07T15:50:01;11.07;;;3.33;;
33738;SDS011;20063;51.730;11.110;2022-12-07T15:52:28;10.43;;;3.13;;
33738;SDS011;20063;51.730;11.110;2022-12-07T15:54:53;12.80;;;2.50;;
33738;SDS011;20063;51.730;11.110;2022-12-07T15:57:19;10.07;;;2.78;;
33738;SDS011;20063;51.730;11.110;2022-12-07T15:59:45;13.75;;;2.88;;
33738;SDS011;20063;51.730;11.110;2022-12-07T16:02:10;8.45;;;3.03;;
33738;SDS011;20063;51.730;11.110;2022-12-07T16:04:36;8.70;;;2.47;;
33738;SDS011;20063;51.730;11.110;2022-12-07T16:07:02;14.20;;;3.58;;
33738;SDS011;20063;51.730;11.110;2022-12-07T16:09:27;14.63;;;3.10;;
33738;SDS011;20063;51.730;11.110;2022-12-07T16:11:53;9.77;;;2.72;;
33738;SDS011;20063;51.730;11.110;2022-12-07T16:14:20;12.77;;;2.15;;
33738;SDS011;20063;51.730;11.110;2022-12-07T16:16:46;11.52;;;2.38;;
33738;SDS011;20063;51.730;11.110;2022-12-07T16:19:12;8.07;;;3.58;;
33738;SDS011;20063;51.730;11.110;2022-12-07T16:21:38;9.73;;;4.22;;
33738;SDS011;20063;51.730;11.110;2022-12-07T16:24:04;16.88;;;5.00;;
33738;SDS011;20063;51.730;11.110;2022-12-07T16:26:31;12.75;;;4.63;;
33738;SDS011;20063;51.730;11.110;2022-12-07T16:28:57;10.75;;;3.13;;
33738;SDS011;20063;51.730;11.110;2022-12-07T16:31:23;17.35;;;3.92;;
33738;SDS011;20063;51.730;11.110;2022-12-07T16:33:55;10.55;;;3.10;;
33738;SDS011;20063;51.730;11.110;2022-12-07T16:36:24;12.02;;;3.05;;
33738;SDS011;20063;51.730;11.110;2022-12-07T16:38:52;19.85;;;4.00;;
33738;SDS011;20063;51.730;11.110;2022-12-07T16:41:18;10.65;;;4.00;;
33738;SDS011;20063;51.730;11.110;2022-12-07T16:43:43;11.00;;;3.03;;
33738;SDS011;20063;51.730;11.110;2022-12-07T16:46:09;8.02;;;2.70;;
33738;SDS011;20063;51.730;11.110;2022-12-07T16:48:38;7.68;;;2.60;;
33738;SDS011;20063;51.730;11.110;2022-12-07T16:51:05;23.83;;;3.42;;
33738;SDS011;20063;51.730;11.110;2022-12-07T16:53:33;25.55;;;5.75;;
33738;SDS011;20063;51.730;11.110;2022-12-07T16:55:59;17.35;;;5.38;;